NCAR-RAP Real-Time Weather Data

Output produced by METARs form (17 September 2019  16:13 UTC)
found at http://weather.rap.ucar.edu/surface/
 
KSYR 171554Z VRB03KT 10SM FEW025 21/12 A3022 RMK AO2 SLP231 T02110117
KSYR 171454Z VRB03KT 10SM FEW020 19/12 A3023 RMK AO2 SLP233 T01890117 50004
KSYR 171354Z VRB03KT 10SM FEW250 17/11 A3023 RMK AO2 SLP235 T01670106
KSYR 171254Z 00000KT 10SM CLR 14/11 A3023 RMK AO2 SLP233 T01390106
KSYR 171154Z 00000KT 10SM CLR 11/09 A3022 RMK AO2 SLP230 T01060089 10111 20083 53016
KSYR 171054Z 00000KT 10SM CLR 09/07 A3019 RMK AO2 SLP222 MIFG SE T00890072
KSYR 170954Z 00000KT 10SM BCFG CLR 09/08 A3018 RMK AO2 SLP216 T00940078
KSYR 170854Z 00000KT 10SM CLR 09/08 A3017 RMK AO2 SLP213 T00940083 53002
KSYR 170754Z 00000KT 10SM FEW250 10/08 A3016 RMK AO2 SLP211 T01000083
KSYR 170654Z 00000KT 10SM FEW200 SCT250 10/08 A3017 RMK AO2 SLP211 T01000083
KSYR 170554Z 10003KT 10SM FEW200 11/09 A3016 RMK AO2 SLP210 T01110094 10156 20111 51009
KSYR 170454Z 00000KT 10SM FEW150 12/10 A3015 RMK AO2 SLP208 T01170100 402280117
KSYR 170354Z 00000KT 10SM FEW150 12/10 A3015 RMK AO2 SLP206 T01220100
KSYR 170254Z 00000KT 10SM FEW130 12/10 A3013 RMK AO2 SLP201 T01220100 51009
KSYR 170054Z 31003KT 10SM FEW130 14/10 A3012 RMK AO2 SLP195 T01440100
KSYR 162354Z 32005KT 10SM FEW130 16/10 A3011 RMK AO2 SLP192 T01560100 10228 20156 53009
KSYR 162254Z 34008KT 10SM FEW130 18/09 A3010 RMK AO2 SLP189 T01780094
KSYR 162154Z 34009KT 10SM SCT130 20/09 A3009 RMK AO2 SLP184 T02000089
KSYR 162054Z 01004KT 10SM FEW130 22/09 A3008 RMK AO2 SLP181 T02220094 57006
KSYR 161954Z 01004KT 10SM FEW040 FEW130 22/08 A3008 RMK AO2 SLP183 T02220083
KSYR 161854Z 32005KT 10SM FEW040 FEW130 22/08 A3009 RMK AO2 SLP186 T02220083